createdAt,value
2022-08-17T00:02:26.120Z,98596.38
2022-08-17T00:04:54.588Z,98600.25
2022-08-17T00:07:21.289Z,98599.03
2022-08-17T00:09:48.244Z,98605.16
2022-08-17T00:12:51.381Z,98602.41
2022-08-17T00:15:02.186Z,98594.84
2022-08-17T00:17:29.115Z,98596.13
2022-08-17T00:19:55.835Z,98600.06
2022-08-17T00:22:33.777Z,98603.94
2022-08-17T00:25:08.344Z,98589.97
2022-08-17T00:27:35.755Z,98591.53
2022-08-17T00:30:04.159Z,98589.13
2022-08-17T00:33:12.651Z,98595.25
2022-08-17T00:35:27.880Z,98600.19
2022-08-17T00:37:55.433Z,98597.50
2022-08-17T00:40:22.618Z,98591.53
2022-08-17T00:42:52.057Z,98591.81
2022-08-17T00:45:20.420Z,98598.41
2022-08-17T00:47:48.468Z,98599.44
2022-08-17T00:50:17.933Z,98597.13
2022-08-17T00:52:54.901Z,98602.25
2022-08-17T00:55:23.990Z,98594.78
2022-08-17T00:57:56.191Z,98602.59
2022-08-17T01:00:39.493Z,98609.88
2022-08-17T01:03:11.936Z,98597.19
2022-08-17T01:05:42.397Z,98604.97
2022-08-17T01:08:13.078Z,98603.94
2022-08-17T01:10:58.444Z,98611.25
2022-08-17T01:13:41.283Z,98614.19
2022-08-17T01:16:15.967Z,98611.69
2022-08-17T01:18:44.663Z,98605.44
2022-08-17T01:21:20.246Z,98606.06
2022-08-17T01:23:46.973Z,98601.97
2022-08-17T01:26:13.725Z,98606.94
2022-08-17T01:28:53.712Z,98593.63
2022-08-17T01:31:23.490Z,98597.66
2022-08-17T01:33:50.171Z,98611.00
2022-08-17T01:36:16.815Z,98613.41
2022-08-17T01:38:43.572Z,98616.56
2022-08-17T01:41:14.412Z,98614.84
2022-08-17T01:43:49.604Z,98635.72
2022-08-17T01:46:29.171Z,98632.28
2022-08-17T01:48:57.747Z,98625.53
2022-08-17T01:51:29.327Z,98629.94
2022-08-17T01:53:58.247Z,98633.13
2022-08-17T01:56:26.926Z,98630.47
2022-08-17T01:58:53.948Z,98632.69
2022-08-17T02:01:26.617Z,98633.25
2022-08-17T02:03:59.452Z,98632.28
2022-08-17T02:06:30.265Z,98628.69
2022-08-17T02:09:03.168Z,98628.19
2022-08-17T02:11:33.525Z,98626.44
2022-08-17T02:14:03.723Z,98629.69
2022-08-17T02:16:37.125Z,98635.13
2022-08-17T02:19:07.968Z,98637.66
2022-08-17T02:21:36.383Z,98632.47
2022-08-17T02:24:04.879Z,98626.78
2022-08-17T02:26:31.694Z,98622.28
2022-08-17T02:28:58.341Z,98619.44
2022-08-17T02:31:25.022Z,98622.28
2022-08-17T02:34:03.363Z,98619.97
2022-08-17T02:36:31.250Z,98623.16
2022-08-17T02:38:58.699Z,98617.75
2022-08-17T02:41:25.608Z,98626.56
2022-08-17T02:43:53.568Z,98620.88
2022-08-17T02:46:20.220Z,98619.88
2022-08-17T02:48:47.312Z,98618.72
2022-08-17T02:51:14.290Z,98617.34
2022-08-17T02:53:41.089Z,98614.88
2022-08-17T02:56:07.793Z,98619.53
2022-08-17T02:58:35.972Z,98622.81
2022-08-17T03:01:08.808Z,98621.34
2022-08-17T03:03:36.974Z,98621.34
2022-08-17T03:06:04.712Z,98609.75
2022-08-17T03:08:31.756Z,98612.06
2022-08-17T03:10:58.482Z,98617.53
2022-08-17T03:13:25.576Z,98617.47
2022-08-17T03:15:52.206Z,98621.53
2022-08-17T03:18:25.588Z,98624.00
2022-08-17T03:20:58.753Z,98629.28
2022-08-17T03:23:26.442Z,98626.03
2022-08-17T03:25:55.213Z,98624.47
2022-08-17T03:28:23.295Z,98617.81
2022-08-17T03:30:51.252Z,98612.56
2022-08-17T03:33:18.905Z,98617.31
2022-08-17T03:35:45.874Z,98616.88
2022-08-17T03:38:15.369Z,98617.13
2022-08-17T03:40:58.021Z,98609.78
2022-08-17T03:43:28.214Z,98615.41
2022-08-17T03:46:34.581Z,98615.88
2022-08-17T03:49:18.456Z,98619.50
2022-08-17T03:52:03.794Z,98616.16
2022-08-17T03:54:49.046Z,98617.13
2022-08-17T03:57:16.367Z,98623.16
2022-08-17T03:59:43.429Z,98625.63
2022-08-17T04:02:21.360Z,98620.63
2022-08-17T04:04:50.879Z,98623.06
2022-08-17T04:07:23.520Z,98619.88
2022-08-17T04:09:50.207Z,98616.91
2022-08-17T04:12:19.065Z,98611.09
2022-08-17T04:14:53.223Z,98613.19
2022-08-17T04:17:27.830Z,98615.13
2022-08-17T04:19:55.686Z,98618.09
2022-08-17T04:22:30.869Z,98620.97
2022-08-17T04:25:15.724Z,98623.56
2022-08-17T04:27:42.375Z,98627.06
2022-08-17T04:30:09.823Z,98621.72
2022-08-17T04:33:05.527Z,98627.28
2022-08-17T04:35:37.718Z,98628.47
2022-08-17T04:38:05.131Z,98632.06
2022-08-17T04:40:50.747Z,98636.56
2022-08-17T04:43:20.930Z,98647.16
2022-08-17T04:45:55.994Z,98641.25
2022-08-17T04:48:34.807Z,98640.28
2022-08-17T04:51:10.580Z,98641.91
2022-08-17T04:53:39.200Z,98652.88
2022-08-17T04:56:06.247Z,98650.59
2022-08-17T04:58:33.253Z,98650.28
2022-08-17T05:01:00.068Z,98650.84
2022-08-17T05:03:27.062Z,98654.22
2022-08-17T05:05:54.095Z,98649.06
2022-08-17T05:08:20.951Z,98661.84
2022-08-17T05:10:48.750Z,98662.50
2022-08-17T05:13:27.223Z,98661.31
2022-08-17T05:15:57.305Z,98665.75
2022-08-17T05:18:24.965Z,98662.69
2022-08-17T05:20:52.379Z,98658.50
2022-08-17T05:23:21.632Z,98670.41
2022-08-17T05:25:51.553Z,98668.88
2022-08-17T05:28:24.105Z,98668.38
2022-08-17T05:30:57.146Z,98667.38
2022-08-17T05:33:27.452Z,98664.50
2022-08-17T05:35:58.007Z,98665.44
2022-08-17T05:38:27.423Z,98658.63
2022-08-17T05:40:55.212Z,98658.75
2022-08-17T05:43:28.627Z,98654.84
2022-08-17T05:46:03.372Z,98654.75
2022-08-17T05:48:43.514Z,98658.59
2022-08-17T05:51:47.000Z,98653.88
2022-08-17T05:54:19.474Z,98653.44
2022-08-17T05:57:16.746Z,98653.44
2022-08-17T05:59:58.943Z,98647.78
2022-08-17T06:02:38.004Z,98642.69
2022-08-17T06:05:29.178Z,98640.28
2022-08-17T06:08:10.912Z,98640.81
2022-08-17T06:10:43.909Z,98648.94
2022-08-17T06:13:31.694Z,98651.13
2022-08-17T06:16:04.587Z,98647.56
2022-08-17T06:19:00.047Z,98650.03
2022-08-17T06:21:32.014Z,98649.94
2022-08-17T06:24:23.903Z,98653.16
2022-08-17T06:26:52.947Z,98656.63
2022-08-17T06:29:42.142Z,98662.34
2022-08-17T06:32:12.752Z,98670.41
2022-08-17T06:34:41.787Z,98666.34
2022-08-17T06:37:29.935Z,98666.59
2022-08-17T06:40:47.358Z,98665.19
2022-08-17T06:43:26.196Z,98660.69
2022-08-17T06:45:58.954Z,98664.00
2022-08-17T06:48:40.748Z,98668.34
2022-08-17T06:51:14.297Z,98668.25
2022-08-17T06:53:59.644Z,98670.97
2022-08-17T06:56:55.257Z,98667.44
2022-08-17T06:59:53.247Z,98667.78
2022-08-17T07:02:51.288Z,98668.78
2022-08-17T07:05:24.252Z,98661.44
2022-08-17T07:08:02.132Z,98670.81
2022-08-17T07:10:36.411Z,98667.69
2022-08-17T07:13:18.184Z,98666.53
2022-08-17T07:15:47.214Z,98670.06
2022-08-17T07:18:13.866Z,98674.00
2022-08-17T07:20:46.697Z,98667.94
2022-08-17T07:23:21.113Z,98673.09
2022-08-17T07:25:49.218Z,98669.94
2022-08-17T07:28:24.506Z,98665.38
2022-08-17T07:30:54.203Z,98663.63
2022-08-17T07:33:32.891Z,98666.22
2022-08-17T07:36:00.352Z,98668.50
2022-08-17T07:38:30.165Z,98672.13
2022-08-17T07:41:03.363Z,98663.66
2022-08-17T07:43:39.243Z,98662.25
2022-08-17T07:46:30.175Z,98668.19
2022-08-17T07:49:23.133Z,98664.09
2022-08-17T07:51:50.470Z,98670.31
2022-08-17T07:54:23.187Z,98661.69
2022-08-17T07:56:53.181Z,98668.78
2022-08-17T07:59:23.091Z,98666.50
2022-08-17T08:01:57.490Z,98669.69
2022-08-17T08:04:59.845Z,98660.59
2022-08-17T08:07:34.743Z,98663.31
2022-08-17T08:10:08.004Z,98662.84
2022-08-17T08:12:43.467Z,98662.94
2022-08-17T08:15:17.386Z,98662.97
2022-08-17T08:17:53.282Z,98656.06
2022-08-17T08:20:58.289Z,98664.78
2022-08-17T08:23:37.307Z,98663.41
2022-08-17T08:26:20.465Z,98653.72
2022-08-17T08:29:18.195Z,98650.31
2022-08-17T08:32:11.284Z,98647.50
2022-08-17T08:35:02.204Z,98648.38
2022-08-17T08:37:51.018Z,98654.59
2022-08-17T08:40:45.162Z,98660.44
2022-08-17T08:43:17.827Z,98661.94
2022-08-17T08:46:22.992Z,98659.25
2022-08-17T08:49:00.175Z,98658.81
2022-08-17T08:51:55.624Z,98644.53
2022-08-17T08:54:34.595Z,98658.47
2022-08-17T08:59:59.701Z,98652.09
2022-08-17T09:02:29.093Z,98665.00
2022-08-17T09:05:35.631Z,98663.38
2022-08-17T09:08:20.288Z,98661.31
2022-08-17T09:10:59.827Z,98656.81
2022-08-17T09:13:54.287Z,98654.22
2022-08-17T09:17:03.222Z,98658.78
2022-08-17T09:19:44.839Z,98662.69
2022-08-17T09:22:31.507Z,98664.06
2022-08-17T09:25:29.007Z,98668.75
2022-08-17T09:28:06.477Z,98663.22
2022-08-17T09:30:55.317Z,98673.09
2022-08-17T09:33:28.472Z,98658.13
2022-08-17T09:36:04.348Z,98656.00
2022-08-17T09:38:49.020Z,98653.84
2022-08-17T09:41:49.132Z,98654.41
2022-08-17T09:44:42.741Z,98653.31
2022-08-17T09:47:26.152Z,98651.34
2022-08-17T09:50:00.400Z,98653.47
2022-08-17T09:52:31.246Z,98642.34
2022-08-17T09:55:01.023Z,98644.16
2022-08-17T09:57:58.098Z,98641.50
2022-08-17T10:00:30.806Z,98643.78
2022-08-17T10:03:19.854Z,98643.00
2022-08-17T10:06:22.359Z,98640.19
2022-08-17T10:09:08.452Z,98633.09
2022-08-17T10:12:11.180Z,98628.94
2022-08-17T10:15:14.898Z,98632.84
2022-08-17T10:18:11.550Z,98635.91
2022-08-17T10:20:43.972Z,98629.44
2022-08-17T10:23:46.990Z,98641.69
2022-08-17T10:26:16.890Z,98626.34
2022-08-17T10:28:53.324Z,98623.31
2022-08-17T10:31:35.767Z,98624.94
2022-08-17T10:34:36.159Z,98624.25
2022-08-17T10:37:20.141Z,98615.88
2022-08-17T10:39:52.634Z,98617.50
2022-08-17T10:42:36.733Z,98617.66
2022-08-17T10:45:15.482Z,98610.44
2022-08-17T10:48:13.103Z,98605.22
2022-08-17T10:51:08.813Z,98604.44
2022-08-17T10:53:35.426Z,98600.69
2022-08-17T10:56:14.295Z,98600.09
2022-08-17T10:58:55.141Z,98596.31
2022-08-17T11:01:34.167Z,98595.97
2022-08-17T11:04:26.923Z,98596.56
2022-08-17T11:07:16.033Z,98596.34
2022-08-17T11:10:08.309Z,98600.38
2022-08-17T11:13:02.010Z,98594.78
2022-08-17T11:16:09.456Z,98585.69
2022-08-17T11:19:08.565Z,98586.06
2022-08-17T11:21:54.385Z,98579.19
2022-08-17T11:24:47.881Z,98591.00
2022-08-17T11:27:32.991Z,98581.81
2022-08-17T11:30:03.041Z,98579.47
2022-08-17T11:32:47.419Z,98579.81
2022-08-17T11:35:20.635Z,98579.34
2022-08-17T11:38:08.624Z,98569.63
2022-08-17T11:41:06.125Z,98571.16
2022-08-17T11:43:51.291Z,98567.41
2022-08-17T11:46:53.941Z,98560.25
2022-08-17T11:49:50.750Z,98559.19
2022-08-17T11:52:38.569Z,98552.31
2022-08-17T11:55:34.131Z,98558.25
2022-08-17T11:58:18.807Z,98562.47
2022-08-17T12:00:45.450Z,98557.88
2022-08-17T12:03:32.956Z,98551.53
2022-08-17T12:06:23.372Z,98560.00
2022-08-17T12:09:06.970Z,98552.06
2022-08-17T12:11:56.359Z,98542.59
2022-08-17T12:14:51.651Z,98547.09
2022-08-17T12:17:39.706Z,98542.63
2022-08-17T12:20:14.448Z,98542.44
2022-08-17T12:23:07.197Z,98541.66
2022-08-17T12:25:46.681Z,98539.19
2022-08-17T12:28:33.259Z,98532.22
2022-08-17T12:31:03.758Z,98537.28
2022-08-17T12:33:30.836Z,98536.34
2022-08-17T12:36:03.993Z,98531.53
2022-08-17T12:38:34.711Z,98534.16
2022-08-17T12:41:23.859Z,98520.63
2022-08-17T12:44:25.816Z,98514.72
2022-08-17T12:46:55.538Z,98513.94
2022-08-17T12:49:30.733Z,98514.91
2022-08-17T12:52:04.711Z,98520.16
2022-08-17T12:54:51.004Z,98528.16
2022-08-17T12:57:19.961Z,98518.66
2022-08-17T12:59:51.409Z,98521.22
2022-08-17T13:02:32.590Z,98505.63
2022-08-17T13:05:01.243Z,98515.53
2022-08-17T13:07:35.419Z,98510.03
2022-08-17T13:10:03.501Z,98511.06
2022-08-17T13:12:33.772Z,98517.81
2022-08-17T13:15:00.940Z,98512.63
2022-08-17T13:17:34.778Z,98508.63
2022-08-17T13:20:03.536Z,98502.50
2022-08-17T13:22:32.394Z,98499.13
2022-08-17T13:25:07.063Z,98502.97
2022-08-17T13:27:34.043Z,98497.09
2022-08-17T13:30:07.444Z,98511.16
2022-08-17T13:32:43.595Z,98508.19
2022-08-17T13:35:29.579Z,98504.59
2022-08-17T13:38:04.433Z,98499.78
2022-08-17T13:40:37.719Z,98494.97
2022-08-17T13:43:05.065Z,98492.72
2022-08-17T13:45:38.862Z,98502.53
2022-08-17T13:48:12.391Z,98492.72
2022-08-17T13:51:00.745Z,98485.13
2022-08-17T13:53:30.032Z,98493.59
2022-08-17T13:56:37.558Z,98486.41
2022-08-17T13:59:05.989Z,98487.50
2022-08-17T14:01:42.104Z,98487.34
2022-08-17T14:04:14.691Z,98473.88
2022-08-17T14:07:03.955Z,98485.53
2022-08-17T14:09:58.256Z,98476.84
2022-08-17T14:12:29.434Z,98482.47
2022-08-17T14:14:56.552Z,98488.81
2022-08-17T14:17:24.156Z,98487.09
2022-08-17T14:19:51.586Z,98484.38
2022-08-17T14:22:33.685Z,98494.13
2022-08-17T14:25:03.879Z,98491.25
2022-08-17T14:27:34.019Z,98483.50
2022-08-17T14:30:10.820Z,98488.44
2022-08-17T14:32:41.307Z,98480.84
2022-08-17T14:35:10.007Z,98472.03
2022-08-17T14:37:37.041Z,98489.31
2022-08-17T14:40:08.131Z,98469.63
2022-08-17T14:42:36.938Z,98465.31
2022-08-17T14:45:06.155Z,98481.59
2022-08-17T14:47:52.880Z,98475.25
2022-08-17T14:50:22.685Z,98476.88
2022-08-17T14:52:50.611Z,98485.59
2022-08-17T14:55:18.353Z,98481.22
2022-08-17T14:57:45.325Z,98473.25
2022-08-17T15:00:12.931Z,98483.09
2022-08-17T15:02:51.711Z,98488.03
2022-08-17T15:05:18.495Z,98486.31
2022-08-17T15:07:45.133Z,98481.63
2022-08-17T15:10:16.380Z,98492.91
2022-08-17T15:12:43.756Z,98484.75
2022-08-17T15:15:13.082Z,98483.66
2022-08-17T15:17:54.596Z,98481.16
2022-08-17T15:20:24.717Z,98478.06
2022-08-17T15:22:55.907Z,98487.41
2022-08-17T15:25:24.961Z,98486.75
2022-08-17T15:27:52.025Z,98475.81
2022-08-17T15:30:19.133Z,98477.09
2022-08-17T15:32:51.470Z,98474.78
2022-08-17T15:35:28.097Z,98473.13
2022-08-17T15:38:11.604Z,98468.78
2022-08-17T15:40:44.502Z,98469.53
2022-08-17T15:43:20.058Z,98465.13
2022-08-17T15:45:59.749Z,98469.53
2022-08-17T15:48:41.205Z,98474.28
2022-08-17T15:51:08.944Z,98470.44
2022-08-17T15:53:35.941Z,98472.47
2022-08-17T15:56:03.293Z,98475.75
2022-08-17T15:58:33.314Z,98474.84
2022-08-17T16:01:18.815Z,98483.63
2022-08-17T16:04:04.593Z,98480.56
2022-08-17T16:06:34.503Z,98483.16
2022-08-17T16:09:01.357Z,98482.09
2022-08-17T16:11:28.112Z,98484.84
2022-08-17T16:13:56.141Z,98483.66
2022-08-17T16:16:23.762Z,98475.59
2022-08-17T16:18:55.673Z,98478.19
2022-08-17T16:21:26.986Z,98484.66
2022-08-17T16:23:57.981Z,98484.78
2022-08-17T16:26:24.776Z,98481.25
2022-08-17T16:28:52.170Z,98479.47
2022-08-17T16:31:18.879Z,98493.16
2022-08-17T16:34:16.307Z,98487.81
2022-08-17T16:36:32.400Z,98483.16
2022-08-17T16:39:00.523Z,98481.22
2022-08-17T16:41:45.724Z,98484.72
2022-08-17T16:44:17.497Z,98487.88
2022-08-17T16:46:46.222Z,98486.47
2022-08-17T16:49:35.112Z,98494.81
2022-08-17T16:52:03.812Z,98489.34
2022-08-17T16:54:30.650Z,98491.00
2022-08-17T16:56:57.372Z,98500.88
2022-08-17T16:59:31.213Z,98499.25
2022-08-17T17:02:10.904Z,98496.38
2022-08-17T17:04:53.250Z,98503.78
2022-08-17T17:07:53.792Z,98500.66
2022-08-17T17:10:24.552Z,98496.00
2022-08-17T17:13:01.859Z,98501.16
2022-08-17T17:15:54.280Z,98495.31
2022-08-17T17:18:30.189Z,98499.56
2022-08-17T17:20:58.046Z,98500.88
2022-08-17T17:23:30.488Z,98508.78
2022-08-17T17:26:15.866Z,98505.84
2022-08-17T17:28:58.365Z,98495.13
2022-08-17T17:31:39.469Z,98500.00
2022-08-17T17:34:10.138Z,98491.31
2022-08-17T17:36:42.472Z,98498.38
2022-08-17T17:39:17.760Z,98498.16
2022-08-17T17:41:59.127Z,98496.97
2022-08-17T17:44:32.182Z,98498.16
2022-08-17T17:47:01.631Z,98499.78
2022-08-17T17:49:35.121Z,98502.19
2022-08-17T17:52:07.821Z,98500.28
2022-08-17T17:54:43.987Z,98497.16
2022-08-17T17:57:35.316Z,98495.72
2022-08-17T18:00:14.779Z,98503.91
2022-08-17T18:03:00.156Z,98500.78
2022-08-17T18:06:01.348Z,98511.59
2022-08-17T18:08:53.240Z,98507.66
2022-08-17T18:11:42.059Z,98509.06
2022-08-17T18:14:39.723Z,98516.00
2022-08-17T18:17:06.849Z,98516.34
2022-08-17T18:19:33.624Z,98521.94
2022-08-17T18:22:14.507Z,98522.03
2022-08-17T18:24:44.214Z,98520.72
2022-08-17T18:27:33.194Z,98530.00
2022-08-17T18:30:15.166Z,98528.81
2022-08-17T18:32:44.446Z,98528.69
2022-08-17T18:35:11.041Z,98534.22
2022-08-17T18:37:45.072Z,98533.41
2022-08-17T18:40:18.374Z,98542.78
2022-08-17T18:43:00.274Z,98538.22
2022-08-17T18:45:35.883Z,98546.19
2022-08-17T18:48:03.210Z,98549.72
2022-08-17T18:50:41.401Z,98553.59
2022-08-17T18:53:19.648Z,98551.53
2022-08-17T18:55:46.506Z,98563.50
2022-08-17T18:58:24.146Z,98567.97
2022-08-17T19:00:51.408Z,98569.13
2022-08-17T19:03:18.071Z,98557.81
2022-08-17T19:05:46.327Z,98552.66
2022-08-17T19:08:28.375Z,98549.97
2022-08-17T19:11:23.666Z,98554.34
2022-08-17T19:14:06.509Z,98552.06
2022-08-17T19:16:42.155Z,98549.03
2022-08-17T19:19:51.052Z,98551.41
2022-08-17T19:22:28.633Z,98542.84
2022-08-17T19:25:10.803Z,98553.09
2022-08-17T19:27:57.649Z,98555.81
2022-08-17T19:30:25.377Z,98548.78
2022-08-17T19:32:53.062Z,98556.13
2022-08-17T19:35:22.794Z,98554.44
2022-08-17T19:38:04.877Z,98559.88
2022-08-17T19:41:06.990Z,98555.16
2022-08-17T19:43:42.702Z,98549.47
2022-08-17T19:46:35.657Z,98543.75
2022-08-17T19:49:22.333Z,98535.03
2022-08-17T19:52:30.319Z,98536.66
2022-08-17T19:55:04.779Z,98533.47
2022-08-17T19:58:00.671Z,98542.47
2022-08-17T20:00:31.031Z,98536.28
2022-08-17T20:03:22.103Z,98544.66
2022-08-17T20:06:14.074Z,98543.59
2022-08-17T20:08:58.408Z,98547.47
2022-08-17T20:11:34.276Z,98550.44
2022-08-17T20:14:12.531Z,98551.34
2022-08-17T20:16:39.383Z,98548.84
2022-08-17T20:19:31.703Z,98552.75
2022-08-17T20:22:10.479Z,98554.34
2022-08-17T20:24:54.187Z,98550.59
2022-08-17T20:27:26.375Z,98548.63
2022-08-17T20:30:10.409Z,98550.22
2022-08-17T20:32:52.817Z,98552.72
2022-08-17T20:35:26.431Z,98554.38
2022-08-17T20:37:58.333Z,98558.50
2022-08-17T20:40:31.786Z,98545.75
2022-08-17T20:42:59.378Z,98555.00
2022-08-17T20:45:28.606Z,98538.47
2022-08-17T20:48:26.070Z,98536.53
2022-08-17T20:50:57.469Z,98546.50
2022-08-17T20:53:53.666Z,98557.34
2022-08-17T20:56:50.025Z,98571.28
2022-08-17T20:59:25.979Z,98576.78
2022-08-17T21:02:18.074Z,98583.91
2022-08-17T21:05:00.190Z,98596.97
2022-08-17T21:07:30.003Z,98605.94
2022-08-17T21:10:16.223Z,98594.88
2022-08-17T21:12:56.693Z,98602.03
2022-08-17T21:15:39.908Z,98598.28
2022-08-17T21:18:25.953Z,98602.63
2022-08-17T21:21:04.385Z,98602.06
2022-08-17T21:23:36.647Z,98601.56
2022-08-17T21:26:21.131Z,98609.69
2022-08-17T21:29:29.524Z,98608.59
2022-08-17T21:32:03.764Z,98609.66
2022-08-17T21:34:43.816Z,98619.91
2022-08-17T21:37:19.842Z,98609.91
2022-08-17T21:39:53.273Z,98621.00
2022-08-17T21:42:29.096Z,98617.44
2022-08-17T21:45:00.596Z,98619.81
2022-08-17T21:47:30.345Z,98617.63
2022-08-17T21:50:20.018Z,98602.41
2022-08-17T21:52:49.997Z,98601.34
2022-08-17T21:55:28.125Z,98597.75
2022-08-17T21:58:13.769Z,98597.78
2022-08-17T22:00:41.242Z,98592.38
2022-08-17T22:03:23.585Z,98590.94
2022-08-17T22:05:51.482Z,98595.34
2022-08-17T22:08:24.535Z,98608.63
2022-08-17T22:10:59.820Z,98620.75
2022-08-17T22:13:29.473Z,98612.00
2022-08-17T22:16:15.532Z,98610.47
2022-08-17T22:18:53.676Z,98615.38
2022-08-17T22:21:22.475Z,98616.22
2022-08-17T22:24:15.379Z,98620.56
2022-08-17T22:27:00.318Z,98601.53
2022-08-17T22:29:57.571Z,98601.28
2022-08-17T22:32:44.573Z,98604.34
2022-08-17T22:35:32.810Z,98611.63
2022-08-17T22:38:18.332Z,98608.88
2022-08-17T22:40:52.097Z,98594.84
2022-08-17T22:43:26.373Z,98602.31
2022-08-17T22:45:57.520Z,98613.25
2022-08-17T22:48:27.959Z,98595.25
2022-08-17T22:51:17.371Z,98593.19
2022-08-17T22:54:12.672Z,98592.09
2022-08-17T22:57:07.479Z,98584.31
2022-08-17T22:59:45.978Z,98576.34
2022-08-17T23:02:20.756Z,98579.91
2022-08-17T23:04:55.585Z,98570.94
2022-08-17T23:07:22.444Z,98568.31
2022-08-17T23:09:51.134Z,98575.75
2022-08-17T23:12:26.708Z,98573.25
2022-08-17T23:15:00.572Z,98571.06
2022-08-17T23:17:37.262Z,98575.25
2022-08-17T23:20:08.298Z,98567.09
2022-08-17T23:22:37.928Z,98563.94
2022-08-17T23:25:26.815Z,98564.41
2022-08-17T23:27:54.477Z,98566.72
2022-08-17T23:30:24.901Z,98547.53
2022-08-17T23:32:53.824Z,98550.19
2022-08-17T23:35:39.033Z,98552.81
2022-08-17T23:38:09.837Z,98547.41
2022-08-17T23:40:37.801Z,98545.53
2022-08-17T23:43:24.506Z,98548.22
2022-08-17T23:45:54.713Z,98542.09
2022-08-17T23:48:28.545Z,98538.38
2022-08-17T23:51:09.089Z,98527.56
2022-08-17T23:53:37.374Z,98520.19
2022-08-17T23:56:10.482Z,98515.56
2022-08-17T23:58:42.344Z,98499.47
